createdAt,value
2022-11-16T00:01:07.387Z,18.77
2022-11-16T00:05:08.786Z,19.83
2022-11-16T00:09:22.039Z,21.57
2022-11-16T00:13:22.659Z,20.17
2022-11-16T00:17:25.909Z,19.90
2022-11-16T00:21:26.631Z,19.10
2022-11-16T00:25:26.711Z,16.00
2022-11-16T00:29:30.188Z,15.93
2022-11-16T00:33:33.577Z,16.20
2022-11-16T00:37:33.927Z,15.27
2022-11-16T00:41:34.211Z,15.37
2022-11-16T00:45:34.307Z,18.07
2022-11-16T00:49:38.492Z,25.70
2022-11-16T00:53:39.389Z,18.37
2022-11-16T00:57:39.728Z,16.57
2022-11-16T01:01:39.992Z,17.73
2022-11-16T01:05:43.137Z,20.03
2022-11-16T01:09:43.244Z,22.07
2022-11-16T01:13:43.351Z,20.33
2022-11-16T01:17:45.552Z,23.30
2022-11-16T01:21:48.244Z,28.13
2022-11-16T01:25:48.408Z,23.80
2022-11-16T01:29:48.692Z,18.43
2022-11-16T01:33:49.321Z,20.10
2022-11-16T01:38:05.023Z,19.27
2022-11-16T01:42:07.577Z,21.77
2022-11-16T01:46:08.184Z,23.40
2022-11-16T01:50:15.974Z,23.80
2022-11-16T01:54:20.566Z,22.47
2022-11-16T01:58:33.290Z,38.13
2022-11-16T02:02:44.788Z,29.90
2022-11-16T02:07:14.527Z,32.17
2022-11-16T02:11:42.719Z,30.67
2022-11-16T02:15:52.180Z,27.60
2022-11-16T02:20:45.230Z,25.90
2022-11-16T02:24:59.572Z,38.07
2022-11-16T02:29:23.694Z,39.07
2022-11-16T02:33:33.367Z,33.37
2022-11-16T02:37:41.210Z,28.43
2022-11-16T02:41:48.486Z,28.83
2022-11-16T02:45:57.176Z,26.93
2022-11-16T02:50:08.388Z,29.23
2022-11-16T02:54:14.399Z,24.90
2022-11-16T02:58:24.075Z,25.20
2022-11-16T03:02:39.178Z,20.97
2022-11-16T03:06:44.181Z,21.00
2022-11-16T03:11:01.032Z,26.87
2022-11-16T03:15:07.626Z,24.73
2022-11-16T03:19:16.387Z,28.50
2022-11-16T03:23:17.582Z,28.10
2022-11-16T03:27:31.779Z,26.20
2022-11-16T03:31:39.182Z,24.37
2022-11-16T03:35:51.972Z,22.50
2022-11-16T03:39:55.473Z,27.90
2022-11-16T03:43:59.595Z,25.63
2022-11-16T03:48:00.073Z,22.50
2022-11-16T03:52:03.160Z,26.30
2022-11-16T03:56:04.812Z,21.80
2022-11-16T04:00:05.246Z,22.73
2022-11-16T04:04:34.218Z,21.73
2022-11-16T04:08:49.812Z,21.70
2022-11-16T04:13:02.815Z,20.63
2022-11-16T04:17:15.501Z,20.53
2022-11-16T04:21:37.202Z,20.67
2022-11-16T04:25:43.714Z,22.63
2022-11-16T04:29:51.220Z,20.30
2022-11-16T04:34:06.681Z,21.57
2022-11-16T04:38:06.944Z,20.03
2022-11-16T04:42:22.415Z,21.03
2022-11-16T04:46:37.482Z,18.13
2022-11-16T04:50:38.443Z,20.03
2022-11-16T04:54:39.838Z,20.80
2022-11-16T04:58:43.260Z,18.87
2022-11-16T05:02:44.273Z,18.83
2022-11-16T05:06:44.528Z,18.00
2022-11-16T05:10:45.167Z,17.70
2022-11-16T05:14:49.365Z,18.27
2022-11-16T05:19:11.129Z,20.67
2022-11-16T05:23:32.523Z,21.83
2022-11-16T05:27:38.603Z,22.70
2022-11-16T05:31:42.159Z,23.57
2022-11-16T05:35:42.975Z,22.40
2022-11-16T05:39:43.503Z,21.57
2022-11-16T05:43:44.024Z,26.63
2022-11-16T05:47:54.594Z,22.83
2022-11-16T05:51:55.392Z,20.37
2022-11-16T05:55:56.027Z,24.73
2022-11-16T05:59:57.361Z,25.03
2022-11-16T06:04:03.140Z,25.27
2022-11-16T06:08:05.492Z,22.13
2022-11-16T06:12:09.345Z,20.87
2022-11-16T06:16:11.082Z,21.77
2022-11-16T06:20:15.267Z,20.07
2022-11-16T06:24:16.912Z,24.07
2022-11-16T06:28:17.523Z,21.60
2022-11-16T06:32:17.710Z,19.17
2022-11-16T06:36:20.474Z,23.53
2022-11-16T06:40:21.922Z,26.53
2022-11-16T06:44:22.472Z,24.50
2022-11-16T06:48:31.225Z,30.37
2022-11-16T06:52:34.507Z,32.97
2022-11-16T06:56:37.431Z,35.23
2022-11-16T07:00:37.790Z,33.23
2022-11-16T07:04:38.468Z,25.90
2022-11-16T07:08:41.888Z,23.00
2022-11-16T07:12:43.892Z,23.43
2022-11-16T07:16:44.966Z,22.03
2022-11-16T07:20:45.180Z,24.80
2022-11-16T07:24:47.980Z,22.87
2022-11-16T07:28:48.811Z,22.90
2022-11-16T07:32:52.890Z,20.13
2022-11-16T07:37:05.683Z,20.00
2022-11-16T07:41:11.941Z,19.60
2022-11-16T07:45:20.437Z,18.83
2022-11-16T07:49:31.292Z,18.40
2022-11-16T07:53:38.501Z,19.00
2022-11-16T07:57:41.378Z,18.10
2022-11-16T08:01:42.796Z,18.10
2022-11-16T08:05:44.820Z,18.33
2022-11-16T08:09:45.551Z,18.10
2022-11-16T08:13:50.836Z,18.50
2022-11-16T08:17:52.459Z,17.13
2022-11-16T08:21:52.586Z,14.90
2022-11-16T08:25:53.410Z,14.70
2022-11-16T08:29:56.242Z,16.07
2022-11-16T08:33:57.233Z,17.70
2022-11-16T08:37:57.462Z,15.93
2022-11-16T08:42:00.170Z,14.20
2022-11-16T08:46:03.343Z,16.20
2022-11-16T08:50:04.271Z,12.63
2022-11-16T08:54:06.475Z,13.13
2022-11-16T08:58:10.175Z,16.37
2022-11-16T09:02:15.497Z,14.73
2022-11-16T09:06:16.859Z,15.80
2022-11-16T09:10:19.125Z,17.87
2022-11-16T09:14:19.229Z,13.37
2022-11-16T09:18:21.886Z,12.83
2022-11-16T09:22:22.033Z,14.60
2022-11-16T09:26:23.329Z,13.17
2022-11-16T09:30:23.698Z,15.30
2022-11-16T09:34:26.676Z,11.53
2022-11-16T09:38:40.309Z,11.00
2022-11-16T09:43:02.265Z,8.27
2022-11-16T09:47:04.971Z,8.40
2022-11-16T09:51:15.155Z,9.93
2022-11-16T09:55:29.116Z,10.83
2022-11-16T09:59:34.761Z,11.70
2022-11-16T10:03:46.280Z,10.03
2022-11-16T10:07:53.407Z,11.40
2022-11-16T10:12:17.720Z,14.00
2022-11-16T10:16:31.249Z,9.40
2022-11-16T10:20:59.984Z,9.43
2022-11-16T10:25:12.279Z,9.27
2022-11-16T10:29:36.582Z,8.07
2022-11-16T10:33:40.743Z,9.33
2022-11-16T10:37:48.974Z,11.43
2022-11-16T10:41:53.278Z,14.60
2022-11-16T10:46:03.161Z,13.23
2022-11-16T10:50:08.125Z,10.37
2022-11-16T10:54:16.011Z,14.27
2022-11-16T10:58:18.733Z,10.27
2022-11-16T11:02:36.547Z,9.70
2022-11-16T11:06:37.056Z,8.40
2022-11-16T11:10:41.121Z,8.40
2022-11-16T11:14:43.835Z,10.73
2022-11-16T11:18:43.947Z,9.40
2022-11-16T11:22:52.475Z,9.73
2022-11-16T11:26:57.044Z,7.70
2022-11-16T11:31:05.682Z,9.10
2022-11-16T11:35:08.001Z,7.77
2022-11-16T11:39:28.347Z,11.33
2022-11-16T11:43:29.827Z,12.60
2022-11-16T11:48:00.712Z,10.00
2022-11-16T11:52:12.108Z,10.77
2022-11-16T11:56:15.369Z,8.27
2022-11-16T12:00:18.515Z,10.13
2022-11-16T12:04:57.661Z,7.70
2022-11-16T12:09:19.207Z,10.00
2022-11-16T12:13:45.489Z,10.20
2022-11-16T12:18:00.757Z,7.80
2022-11-16T12:22:23.716Z,11.87
2022-11-16T12:26:36.981Z,12.87
2022-11-16T12:30:49.010Z,9.57
2022-11-16T12:35:19.765Z,8.13
2022-11-16T12:39:30.018Z,7.63
2022-11-16T12:43:43.975Z,6.43
2022-11-16T12:48:08.714Z,7.13
2022-11-16T12:52:29.272Z,8.23
2022-11-16T12:56:49.061Z,6.90
2022-11-16T13:01:07.109Z,7.27
2022-11-16T13:05:16.425Z,7.67
2022-11-16T13:09:23.972Z,5.80
2022-11-16T13:13:38.823Z,5.57
2022-11-16T13:17:42.479Z,4.90
2022-11-16T13:21:56.476Z,6.13
2022-11-16T13:26:10.212Z,5.63
2022-11-16T13:30:22.997Z,19.13
2022-11-16T13:34:29.013Z,13.47
2022-11-16T13:38:54.926Z,10.73
2022-11-16T13:43:22.690Z,12.80
2022-11-16T13:47:30.731Z,10.53
2022-11-16T13:51:30.982Z,10.73
2022-11-16T13:55:35.317Z,11.17
2022-11-16T13:59:39.141Z,7.00
2022-11-16T14:03:44.757Z,12.47
2022-11-16T14:07:47.489Z,9.13
2022-11-16T14:11:47.642Z,8.97
2022-11-16T14:15:47.813Z,18.30
2022-11-16T14:19:59.496Z,16.17
2022-11-16T14:24:27.246Z,10.53
2022-11-16T14:28:59.232Z,15.40
2022-11-16T14:33:01.389Z,14.73
2022-11-16T14:37:04.798Z,11.63
2022-11-16T14:41:08.933Z,15.90
2022-11-16T14:45:19.425Z,13.37
2022-11-16T14:49:22.067Z,15.43
2022-11-16T14:53:24.962Z,13.67
2022-11-16T14:57:27.606Z,16.27
2022-11-16T15:01:33.094Z,20.27
2022-11-16T15:05:39.323Z,17.13
2022-11-16T15:09:47.045Z,17.97
2022-11-16T15:13:50.181Z,16.43
2022-11-16T15:18:09.364Z,18.83
2022-11-16T15:22:25.591Z,29.50
2022-11-16T15:26:28.359Z,19.37
2022-11-16T15:30:33.075Z,22.50
2022-11-16T15:34:35.105Z,30.37
2022-11-16T15:38:37.641Z,31.07
2022-11-16T15:42:43.669Z,22.30
2022-11-16T15:46:47.199Z,26.23
2022-11-16T15:51:04.312Z,20.77
2022-11-16T15:55:07.686Z,20.63
2022-11-16T15:59:25.347Z,21.40
2022-11-16T16:03:29.090Z,17.87
2022-11-16T16:07:40.039Z,24.17
2022-11-16T16:11:40.311Z,23.77
2022-11-16T16:15:43.197Z,38.13
2022-11-16T16:19:47.524Z,26.47
2022-11-16T16:23:50.065Z,37.33
2022-11-16T16:27:50.169Z,19.43
2022-11-16T16:31:52.835Z,22.20
2022-11-16T16:35:52.944Z,26.30
2022-11-16T16:39:53.036Z,46.60
2022-11-16T16:43:53.114Z,45.77
2022-11-16T16:47:55.816Z,26.03
2022-11-16T16:51:56.033Z,38.77
2022-11-16T16:55:56.158Z,35.50
2022-11-16T16:59:56.566Z,18.60
2022-11-16T17:03:59.600Z,31.90
2022-11-16T17:07:59.940Z,27.43
2022-11-16T17:12:00.063Z,23.53
2022-11-16T17:16:00.248Z,37.10
2022-11-16T17:20:03.666Z,67.97
2022-11-16T17:24:03.842Z,65.60
2022-11-16T17:28:03.952Z,48.73
2022-11-16T17:32:04.687Z,34.87
2022-11-16T17:36:10.148Z,29.70
2022-11-16T17:40:21.182Z,27.83
2022-11-16T17:44:31.156Z,48.50
2022-11-16T17:48:36.367Z,44.70
2022-11-16T17:52:46.103Z,44.57
2022-11-16T17:56:47.528Z,37.10
2022-11-16T18:00:52.330Z,49.73
2022-11-16T18:04:55.600Z,41.40
2022-11-16T18:09:04.429Z,42.03
2022-11-16T18:13:06.821Z,36.83
2022-11-16T18:17:13.390Z,53.57
2022-11-16T18:21:23.601Z,47.43
2022-11-16T18:26:15.150Z,44.17
2022-11-16T18:36:53.376Z,46.50
2022-11-16T18:53:00.584Z,28.03
2022-11-16T19:07:42.179Z,55.13
2022-11-16T19:12:02.181Z,45.10
2022-11-16T19:16:06.027Z,39.87
2022-11-16T19:20:08.186Z,37.33
2022-11-16T19:24:17.213Z,34.40
2022-11-16T19:28:20.114Z,40.00
2022-11-16T19:32:22.871Z,37.97
2022-11-16T19:36:23.786Z,47.57
2022-11-16T19:40:25.262Z,48.17
2022-11-16T19:44:25.545Z,99.77
2022-11-16T19:48:28.349Z,67.90
2022-11-16T19:52:28.480Z,68.87
2022-11-16T19:56:28.662Z,34.50
2022-11-16T20:00:29.090Z,44.67
2022-11-16T20:04:34.417Z,35.80
2022-11-16T20:08:34.594Z,27.83
2022-11-16T20:12:34.872Z,33.30
2022-11-16T20:16:39.201Z,43.07
2022-11-16T20:20:42.245Z,64.23
2022-11-16T20:24:42.413Z,45.40
2022-11-16T20:28:45.733Z,34.60
2022-11-16T20:32:46.160Z,32.73
2022-11-16T20:36:51.352Z,30.77
2022-11-16T20:40:51.758Z,32.40
2022-11-16T20:44:52.087Z,36.70
2022-11-16T20:48:52.841Z,29.97
2022-11-16T20:52:55.548Z,36.10
2022-11-16T20:56:55.699Z,24.47
2022-11-16T21:00:55.867Z,30.23
2022-11-16T21:05:00.040Z,30.30
2022-11-16T21:09:04.797Z,26.83
2022-11-16T21:13:17.438Z,27.27
2022-11-16T21:17:20.701Z,28.27
2022-11-16T21:21:20.989Z,43.03
2022-11-16T21:25:24.200Z,45.90
2022-11-16T21:29:26.067Z,48.30
2022-11-16T21:33:26.456Z,44.27
2022-11-16T21:37:27.218Z,44.63
2022-11-16T21:41:30.715Z,35.40
2022-11-16T21:45:30.828Z,39.37
2022-11-16T21:49:30.875Z,39.97
2022-11-16T21:53:31.061Z,37.33
2022-11-16T21:57:34.015Z,38.17
2022-11-16T22:01:54.167Z,35.97
2022-11-16T22:06:11.831Z,33.37
2022-11-16T22:10:15.289Z,34.33
2022-11-16T22:14:17.970Z,31.60
2022-11-16T22:18:18.215Z,33.07
2022-11-16T22:22:18.439Z,26.53
2022-11-16T22:26:18.540Z,25.30
2022-11-16T22:30:21.912Z,29.07
2022-11-16T22:34:22.073Z,27.77
2022-11-16T22:38:22.187Z,25.40
2022-11-16T22:42:22.592Z,26.53
2022-11-16T22:46:25.377Z,25.07
2022-11-16T22:50:26.283Z,25.60
2022-11-16T22:54:28.713Z,23.67
2022-11-16T22:58:29.558Z,22.40
2022-11-16T23:02:32.293Z,24.63
2022-11-16T23:06:32.543Z,20.80
2022-11-16T23:10:52.772Z,24.43
2022-11-16T23:15:05.310Z,24.13
2022-11-16T23:19:29.654Z,24.27
2022-11-16T23:23:42.215Z,24.80
2022-11-16T23:27:52.897Z,30.90
2022-11-16T23:31:52.998Z,24.13
2022-11-16T23:35:55.620Z,28.10
2022-11-16T23:39:55.843Z,31.50
2022-11-16T23:43:59.324Z,29.67
2022-11-16T23:47:59.430Z,33.77
2022-11-16T23:52:02.101Z,32.47
2022-11-16T23:56:06.318Z,28.87
